LICC/CTA METAR and TAF weather

Enter ICAO airport designator
Station Type Date Time Source
LICC METAR 2021/10/20 07:20 UTC NOAA

LICC 200720Z 23003KT 190V250 CAVOK 18/14 Q1028


Station Type Date Time Source
LICC Decoded METAR 2021/10/20 07:20 UTC NOAA

Catania / Fontanarossa, Italy (LICC) 37-28N 015-03E 17M
Oct 20, 2021 - 03:20 AM EDT / 2021.10.20 0720 UTC
Wind: from the SW (230 degrees) at 3 MPH (3 KT) (direction variable):0
Visibility: greater than 7 mile(s):0
Temperature: 64 F (18 C)
Dew Point: 57 F (14 C)
Relative Humidity: 77%
Pressure (altimeter): 30.36 in. Hg (1028 hPa)
ob: LICC 200720Z 23003KT 190V250 CAVOK 18/14 Q1028
cycle: 7

Station Type Date Time Source
LICC TAF 2021/10/20 06:24 UTC NOAA

TAF LICC 200500Z 2006/2106 VRB04KT 9999 SCT030
BECMG 2008/2010 06010KT
BECMG 2016/2018 VRB05KT

Example: see airport list